createdAt,value
2018-03-17T00:01:05.952Z,89.37
2018-03-17T00:03:32.130Z,89.59
2018-03-17T00:05:58.313Z,89.50
2018-03-17T00:08:24.520Z,88.86
2018-03-17T00:10:50.669Z,88.88
2018-03-17T00:13:16.853Z,89.08
2018-03-17T00:15:43.056Z,89.01
2018-03-17T00:18:09.275Z,89.41
2018-03-17T00:20:35.427Z,89.35
2018-03-17T00:23:01.665Z,89.50
2018-03-17T00:25:27.899Z,89.38
2018-03-17T00:27:54.059Z,89.06
2018-03-17T00:30:20.200Z,88.80
2018-03-17T00:32:46.405Z,89.12
2018-03-17T00:35:12.600Z,89.42
2018-03-17T00:37:38.811Z,89.62
2018-03-17T00:40:05.049Z,89.70
2018-03-17T00:42:31.214Z,89.79
2018-03-17T00:44:57.460Z,89.49
2018-03-17T00:47:23.630Z,89.74
2018-03-17T00:49:50.158Z,89.86
2018-03-17T00:52:16.349Z,89.80
2018-03-17T00:54:42.571Z,89.76
2018-03-17T00:57:08.724Z,89.88
2018-03-17T00:59:34.921Z,90.15
2018-03-17T01:02:01.157Z,90.17
2018-03-17T01:04:27.344Z,90.09
2018-03-17T01:06:53.563Z,89.95
2018-03-17T01:09:19.766Z,90.24
2018-03-17T01:11:45.899Z,89.80
2018-03-17T01:14:12.085Z,89.60
2018-03-17T01:16:38.334Z,90.23
2018-03-17T01:19:04.517Z,89.80
2018-03-17T01:21:30.680Z,89.76
2018-03-17T01:23:56.871Z,89.54
2018-03-17T01:26:23.099Z,89.55
2018-03-17T01:28:49.245Z,89.29
2018-03-17T01:31:15.393Z,89.04
2018-03-17T01:33:41.533Z,88.41
2018-03-17T01:36:07.726Z,88.70
2018-03-17T01:38:33.986Z,88.96
2018-03-17T01:41:00.145Z,88.37
2018-03-17T01:43:26.317Z,88.48
2018-03-17T01:45:52.509Z,88.96
2018-03-17T01:48:18.652Z,88.37
2018-03-17T01:50:44.826Z,88.25
2018-03-17T01:53:11.062Z,88.96
2018-03-17T01:55:37.303Z,88.57
2018-03-17T01:58:03.465Z,88.54
2018-03-17T02:00:29.623Z,88.34
2018-03-17T02:02:55.749Z,88.43
2018-03-17T02:05:22.010Z,88.10
2018-03-17T02:07:48.223Z,88.11
2018-03-17T02:10:14.450Z,87.88
2018-03-17T02:12:40.612Z,87.89
2018-03-17T02:15:06.805Z,87.70
2018-03-17T02:17:32.930Z,87.82
2018-03-17T02:19:59.053Z,87.18
2018-03-17T02:22:25.279Z,87.01
2018-03-17T02:24:52.784Z,86.95
2018-03-17T02:27:18.911Z,86.40
2018-03-17T02:29:45.107Z,86.67
2018-03-17T02:32:11.284Z,86.24
2018-03-17T02:34:37.532Z,86.88
2018-03-17T02:37:03.783Z,86.17
2018-03-17T02:39:29.909Z,85.94
2018-03-17T02:41:56.043Z,85.48
2018-03-17T02:44:23.242Z,84.91
2018-03-17T02:46:49.429Z,85.08
2018-03-17T02:49:15.606Z,84.71
2018-03-17T02:51:41.800Z,84.61
2018-03-17T02:54:08.002Z,84.41
2018-03-17T02:56:34.236Z,84.87
2018-03-17T02:59:00.451Z,84.80
2018-03-17T03:01:26.616Z,84.74
2018-03-17T03:03:52.802Z,84.47
2018-03-17T03:06:18.931Z,84.67
2018-03-17T03:08:45.163Z,84.41
2018-03-17T03:11:11.409Z,84.65
2018-03-17T03:13:37.605Z,84.59
2018-03-17T03:16:03.808Z,84.98
2018-03-17T03:18:29.953Z,84.76
2018-03-17T03:20:56.112Z,84.45
2018-03-17T03:23:23.247Z,84.02
2018-03-17T03:25:49.464Z,83.66
2018-03-17T03:28:16.338Z,83.65
2018-03-17T03:30:42.455Z,84.13
2018-03-17T03:33:08.589Z,84.63
2018-03-17T03:35:34.800Z,84.66
2018-03-17T03:38:01.082Z,85.09
2018-03-17T03:40:27.346Z,85.01
2018-03-17T03:42:53.552Z,84.76
2018-03-17T03:45:19.752Z,84.24
2018-03-17T03:47:45.920Z,84.60
2018-03-17T03:50:12.082Z,85.03
2018-03-17T03:52:38.249Z,84.16
2018-03-17T03:55:04.517Z,84.03
2018-03-17T03:57:30.741Z,84.21
2018-03-17T03:59:57.026Z,84.01
2018-03-17T04:02:23.188Z,83.88
2018-03-17T04:04:49.338Z,84.21
2018-03-17T04:07:15.594Z,84.10
2018-03-17T04:09:41.795Z,84.19
2018-03-17T04:12:08.009Z,83.62
2018-03-17T04:14:34.143Z,84.19
2018-03-17T04:17:00.380Z,84.50
2018-03-17T04:19:26.602Z,84.04
2018-03-17T04:21:53.890Z,84.17
2018-03-17T04:24:20.042Z,83.83
2018-03-17T04:26:46.281Z,84.02
2018-03-17T04:29:12.492Z,83.59
2018-03-17T04:31:38.658Z,83.82
2018-03-17T04:34:04.852Z,83.71
2018-03-17T04:36:31.073Z,84.37
2018-03-17T04:38:57.235Z,83.85
2018-03-17T04:41:23.581Z,83.22
2018-03-17T04:43:49.805Z,83.85
2018-03-17T04:46:16.015Z,83.76
2018-03-17T04:48:42.213Z,83.91
2018-03-17T04:51:08.422Z,83.98
2018-03-17T04:53:34.533Z,83.66
2018-03-17T04:56:00.698Z,83.76
2018-03-17T04:58:26.955Z,84.45
2018-03-17T05:00:54.658Z,84.72
2018-03-17T05:03:20.798Z,84.87
2018-03-17T05:05:46.986Z,85.32
2018-03-17T05:08:13.190Z,85.29
2018-03-17T05:10:39.316Z,86.08
2018-03-17T05:13:05.477Z,86.28
2018-03-17T05:15:31.690Z,86.97
2018-03-17T05:17:57.911Z,87.06
2018-03-17T05:20:24.059Z,87.03
2018-03-17T05:22:50.282Z,87.31
2018-03-17T05:25:16.475Z,87.63
2018-03-17T05:27:42.655Z,87.94
2018-03-17T05:30:08.807Z,87.84
2018-03-17T05:32:36.051Z,87.79
2018-03-17T05:35:02.244Z,88.88
2018-03-17T05:37:28.461Z,89.66
2018-03-17T05:39:54.644Z,88.90
2018-03-17T05:42:20.851Z,88.82
2018-03-17T05:44:47.179Z,89.26
2018-03-17T05:47:13.406Z,90.05
2018-03-17T05:49:39.568Z,90.93
2018-03-17T05:52:05.778Z,91.32
2018-03-17T05:54:31.960Z,91.64
2018-03-17T05:56:58.173Z,92.52
2018-03-17T05:59:24.336Z,92.38
2018-03-17T06:01:50.541Z,92.93
2018-03-17T06:04:16.843Z,92.87
2018-03-17T06:06:42.947Z,92.84
2018-03-17T06:09:09.153Z,93.14
2018-03-17T06:11:35.381Z,93.18
2018-03-17T06:14:01.651Z,92.90
2018-03-17T06:16:27.789Z,93.22
2018-03-17T06:18:53.987Z,93.35
2018-03-17T06:21:20.177Z,93.38
2018-03-17T06:23:46.376Z,93.56
2018-03-17T06:26:12.552Z,92.17
2018-03-17T06:28:38.783Z,92.08
2018-03-17T06:31:04.938Z,92.31
2018-03-17T06:33:31.125Z,92.60
2018-03-17T06:35:57.945Z,92.85
2018-03-17T06:38:24.116Z,92.84
2018-03-17T06:40:50.262Z,92.80
2018-03-17T06:43:16.419Z,92.65
2018-03-17T06:45:43.549Z,92.47
2018-03-17T06:48:09.802Z,92.73
2018-03-17T06:50:35.994Z,92.48
2018-03-17T06:53:02.144Z,92.40
2018-03-17T06:55:28.344Z,91.94
2018-03-17T06:57:54.650Z,92.22
2018-03-17T07:00:20.882Z,91.41
2018-03-17T07:02:47.018Z,90.77
2018-03-17T07:05:13.267Z,90.22
2018-03-17T07:07:39.488Z,90.28
2018-03-17T07:10:05.667Z,90.23
2018-03-17T07:12:31.920Z,89.82
2018-03-17T07:14:58.094Z,89.01
2018-03-17T07:17:24.332Z,88.77
2018-03-17T07:19:50.513Z,89.60
2018-03-17T07:22:16.722Z,88.59
2018-03-17T07:24:42.879Z,88.84
2018-03-17T07:27:09.109Z,88.21
2018-03-17T07:29:35.307Z,88.29
2018-03-17T07:32:01.549Z,88.27
2018-03-17T07:34:30.357Z,88.94
2018-03-17T07:36:56.521Z,89.26
2018-03-17T07:39:22.762Z,89.07
2018-03-17T07:41:49.037Z,89.39
2018-03-17T07:44:15.299Z,89.43
2018-03-17T07:46:41.508Z,88.43
2018-03-17T07:49:07.674Z,88.46
2018-03-17T07:51:33.988Z,88.26
2018-03-17T07:54:00.122Z,86.59
2018-03-17T07:56:26.221Z,86.45
2018-03-17T07:58:52.416Z,86.34
2018-03-17T08:01:18.536Z,85.65
2018-03-17T08:03:44.695Z,85.18
2018-03-17T08:06:10.913Z,85.50
2018-03-17T08:08:37.242Z,84.81
2018-03-17T08:11:03.400Z,85.08
2018-03-17T08:13:29.559Z,85.03
2018-03-17T08:15:55.682Z,84.66
2018-03-17T08:18:21.907Z,85.10
2018-03-17T08:20:48.009Z,84.62
2018-03-17T08:23:14.148Z,84.63
2018-03-17T08:25:40.339Z,84.21
2018-03-17T08:28:06.607Z,84.41
2018-03-17T08:30:32.725Z,83.92
2018-03-17T08:32:58.904Z,83.42
2018-03-17T08:35:25.068Z,83.91
2018-03-17T08:37:51.257Z,83.84
2018-03-17T08:40:17.487Z,85.15
2018-03-17T08:42:43.610Z,85.47
2018-03-17T08:45:09.715Z,84.27
2018-03-17T08:47:35.995Z,84.67
2018-03-17T08:50:02.349Z,85.09
2018-03-17T08:52:29.083Z,84.68
2018-03-17T08:54:55.333Z,84.46
2018-03-17T08:57:21.519Z,83.86
2018-03-17T08:59:48.021Z,83.77
2018-03-17T09:02:14.342Z,83.67
2018-03-17T09:04:40.667Z,83.61
2018-03-17T09:07:06.906Z,83.40
2018-03-17T09:09:33.160Z,83.60
2018-03-17T09:12:00.484Z,83.93
2018-03-17T09:14:26.850Z,83.47
2018-03-17T09:16:53.063Z,83.33
2018-03-17T09:19:19.273Z,82.99
2018-03-17T09:24:49.858Z,83.36
2018-03-17T09:27:16.967Z,83.68
2018-03-17T09:29:43.544Z,83.32
2018-03-17T09:32:09.742Z,83.14
2018-03-17T09:34:35.949Z,83.05
2018-03-17T09:37:02.294Z,83.36
2018-03-17T09:39:28.484Z,82.79
2018-03-17T09:41:54.750Z,83.14
2018-03-17T09:44:21.537Z,82.03
2018-03-17T09:46:48.153Z,81.88
2018-03-17T09:49:24.508Z,82.91
2018-03-17T09:51:51.541Z,83.04
2018-03-17T09:54:17.977Z,83.33
2018-03-17T09:56:45.017Z,82.73
2018-03-17T09:59:11.832Z,83.43
2018-03-17T10:01:39.443Z,83.98
2018-03-17T10:04:25.509Z,84.01
2018-03-17T10:06:51.981Z,84.08
2018-03-17T10:09:19.420Z,84.06
2018-03-17T10:14:49.532Z,83.43
2018-03-17T10:17:15.972Z,83.34
2018-03-17T10:22:39.863Z,84.29
2018-03-17T10:28:08.982Z,83.87
2018-03-17T10:30:35.507Z,83.40
2018-03-17T10:33:01.769Z,82.96
2018-03-17T10:35:29.097Z,83.55
2018-03-17T10:37:56.402Z,83.56
2018-03-17T10:40:23.750Z,83.84
2018-03-17T10:42:50.513Z,83.17
2018-03-17T10:45:16.751Z,83.07
2018-03-17T10:50:46.074Z,83.21
2018-03-17T10:53:13.837Z,82.73
2018-03-17T10:58:45.137Z,83.06
2018-03-17T11:01:17.348Z,82.47
2018-03-17T11:09:49.902Z,82.42
2018-03-17T11:12:17.056Z,82.32
2018-03-17T11:14:43.264Z,80.95
2018-03-17T11:17:10.708Z,81.57
2018-03-17T11:22:41.068Z,82.09
2018-03-17T11:25:07.273Z,81.58
2018-03-17T11:27:54.461Z,81.73
2018-03-17T11:33:23.934Z,80.87
2018-03-17T11:35:50.698Z,81.08
2018-03-17T11:38:16.987Z,81.57
2018-03-17T11:40:43.245Z,82.07
2018-03-17T11:43:10.400Z,81.69
2018-03-17T11:48:43.584Z,80.65
2018-03-17T11:51:10.008Z,81.50
2018-03-17T12:11:56.375Z,80.84
2018-03-17T12:14:22.631Z,81.22
2018-03-17T12:16:48.733Z,81.52
2018-03-17T12:19:14.890Z,80.53
2018-03-17T12:21:41.133Z,80.64
2018-03-17T12:24:07.284Z,79.94
2018-03-17T12:26:33.412Z,81.13
2018-03-17T12:28:59.581Z,80.43
2018-03-17T12:31:25.770Z,80.16
2018-03-17T12:33:51.877Z,80.04
2018-03-17T12:36:18.009Z,79.88
2018-03-17T12:38:44.176Z,80.14
2018-03-17T12:41:10.455Z,80.31
2018-03-17T12:43:36.641Z,79.85
2018-03-17T12:46:02.916Z,79.29
2018-03-17T12:48:29.083Z,79.33
2018-03-17T12:50:55.231Z,79.46
2018-03-17T12:53:21.367Z,80.15
2018-03-17T12:55:47.522Z,79.61
2018-03-17T12:58:13.695Z,79.39
2018-03-17T13:00:39.849Z,79.68
2018-03-17T13:03:05.945Z,79.65
2018-03-17T13:05:32.103Z,79.08
2018-03-17T13:07:59.233Z,79.08
2018-03-17T13:10:25.341Z,79.98
2018-03-17T13:12:51.479Z,78.91
2018-03-17T13:15:17.814Z,79.37
2018-03-17T13:17:43.949Z,79.81
2018-03-17T13:20:10.159Z,78.88
2018-03-17T13:22:48.426Z,79.50
2018-03-17T13:25:14.627Z,78.93
2018-03-17T13:27:53.157Z,79.20
2018-03-17T13:30:19.335Z,78.64
2018-03-17T13:32:55.564Z,78.00
2018-03-17T13:35:21.692Z,78.50
2018-03-17T13:37:47.791Z,78.56
2018-03-17T13:40:25.994Z,78.12
2018-03-17T13:42:52.101Z,78.10
2018-03-17T13:45:18.240Z,77.06
2018-03-17T13:47:44.397Z,76.86
2018-03-17T13:50:10.595Z,77.24
2018-03-17T13:52:36.736Z,77.12
2018-03-17T13:55:04.601Z,77.06
2018-03-17T14:24:56.850Z,76.46
2018-03-17T15:01:14.736Z,76.56
2018-03-17T15:37:12.907Z,73.92
2018-03-17T15:54:53.783Z,73.81
2018-03-17T15:57:34.836Z,74.11
2018-03-17T16:00:01.155Z,73.37
2018-03-17T16:08:34.204Z,73.65
2018-03-17T16:13:58.306Z,74.25
2018-03-17T16:25:32.784Z,74.02
2018-03-17T16:31:15.706Z,73.00
2018-03-17T16:36:44.310Z,73.67
2018-03-17T16:39:10.561Z,73.82
2018-03-17T16:41:36.704Z,73.92
2018-03-17T16:44:02.946Z,73.43
2018-03-17T16:46:29.200Z,73.31
2018-03-17T16:48:55.405Z,73.70
2018-03-17T16:51:21.559Z,73.19
2018-03-17T16:53:47.690Z,73.33
2018-03-17T16:56:13.871Z,73.73
2018-03-17T16:58:40.038Z,73.44
2018-03-17T17:01:06.405Z,72.61
2018-03-17T17:03:32.637Z,72.02
2018-03-17T17:05:59.195Z,72.54
2018-03-17T17:08:25.404Z,72.67
2018-03-17T17:10:51.627Z,72.93
2018-03-17T17:13:17.856Z,71.95
2018-03-17T17:15:44.050Z,72.24
2018-03-17T17:18:10.283Z,72.32
2018-03-17T17:20:36.565Z,72.38
2018-03-17T17:23:02.805Z,72.83
2018-03-17T17:25:29.080Z,73.14
2018-03-17T17:27:55.757Z,72.49
2018-03-17T17:30:23.699Z,73.21
2018-03-17T17:32:49.933Z,74.21
2018-03-17T17:35:17.053Z,73.32
2018-03-17T17:37:43.272Z,73.49
2018-03-17T17:40:09.482Z,73.98
2018-03-17T17:42:35.745Z,73.52
2018-03-17T17:45:01.925Z,73.25
2018-03-17T17:47:28.094Z,73.98
2018-03-17T17:49:54.310Z,73.73
2018-03-17T17:52:20.547Z,73.61
2018-03-17T17:54:46.754Z,72.97
2018-03-17T17:57:13.019Z,73.57
2018-03-17T17:59:39.494Z,73.14
2018-03-17T18:02:05.665Z,73.59
2018-03-17T18:04:31.899Z,73.59
2018-03-17T18:06:58.098Z,72.75
2018-03-17T18:09:24.470Z,72.36
2018-03-17T18:11:50.679Z,72.49
2018-03-17T18:14:16.882Z,72.85
2018-03-17T18:16:43.125Z,73.28
2018-03-17T18:19:09.312Z,73.70
2018-03-17T18:21:35.487Z,74.62
2018-03-17T18:24:01.703Z,73.98
2018-03-17T18:26:27.911Z,73.67
2018-03-17T18:28:54.575Z,72.88
2018-03-17T18:31:20.861Z,73.34
2018-03-17T18:33:47.047Z,73.20
2018-03-17T18:36:14.992Z,73.74
2018-03-17T18:38:43.450Z,73.42
2018-03-17T18:41:09.671Z,73.45
2018-03-17T18:43:36.903Z,73.40
2018-03-17T18:46:03.276Z,73.60
2018-03-17T18:48:29.464Z,73.19
2018-03-17T18:50:56.676Z,72.70
2018-03-17T18:53:23.017Z,72.79
2018-03-17T18:55:49.273Z,73.00
2018-03-17T18:58:15.562Z,73.19
2018-03-17T19:00:42.581Z,72.55
2018-03-17T19:03:08.831Z,72.72
2018-03-17T19:05:36.309Z,72.47
2018-03-17T19:08:02.571Z,72.75
2018-03-17T19:10:29.568Z,72.84
2018-03-17T19:12:55.765Z,72.34
2018-03-17T19:15:22.673Z,72.45
2018-03-17T19:17:48.819Z,72.38
2018-03-17T19:20:15.053Z,72.52
2018-03-17T19:22:41.208Z,72.29
2018-03-17T19:25:07.497Z,72.59
2018-03-17T19:27:33.759Z,72.18
2018-03-17T19:29:59.990Z,71.76
2018-03-17T19:32:26.228Z,72.53
2018-03-17T19:34:52.415Z,72.21
2018-03-17T19:37:19.014Z,72.72
2018-03-17T19:39:45.271Z,71.61
2018-03-17T19:42:11.459Z,73.09
2018-03-17T19:44:37.682Z,72.45
2018-03-17T19:47:03.911Z,72.31
2018-03-17T19:49:30.118Z,72.92
2018-03-17T19:51:56.361Z,72.33
2018-03-17T19:54:23.087Z,72.71
2018-03-17T19:56:49.285Z,73.93
2018-03-17T19:59:15.481Z,73.84
2018-03-17T20:01:42.248Z,73.45
2018-03-17T20:04:19.400Z,72.73
2018-03-17T20:06:46.284Z,73.01
2018-03-17T20:09:13.171Z,72.59
2018-03-17T20:11:39.421Z,72.31
2018-03-17T20:14:05.642Z,72.63
2018-03-17T20:16:31.912Z,72.25
2018-03-17T20:18:58.190Z,72.01
2018-03-17T20:21:24.484Z,72.51
2018-03-17T20:23:50.708Z,72.08
2018-03-17T20:26:17.091Z,72.17
2018-03-17T20:28:43.334Z,71.44
2018-03-17T20:31:10.108Z,71.20
2018-03-17T20:33:36.329Z,71.31
2018-03-17T20:36:03.218Z,71.88
2018-03-17T20:38:29.460Z,71.75
2018-03-17T20:40:55.671Z,70.87
2018-03-17T20:43:22.309Z,71.41
2018-03-17T20:45:49.185Z,71.58
2018-03-17T20:48:15.328Z,71.74
2018-03-17T20:50:41.503Z,71.65
2018-03-17T20:53:07.704Z,71.66
2018-03-17T20:55:33.889Z,71.00
2018-03-17T20:58:00.173Z,70.43
2018-03-17T21:00:26.384Z,70.65
2018-03-17T21:02:52.660Z,70.33
2018-03-17T21:05:18.919Z,69.83
2018-03-17T21:07:45.123Z,69.77
2018-03-17T21:10:11.385Z,69.45
2018-03-17T21:12:37.623Z,70.23
2018-03-17T21:15:03.855Z,69.81
2018-03-17T21:17:30.071Z,70.41
2018-03-17T21:19:56.295Z,69.99
2018-03-17T21:22:22.533Z,70.72
2018-03-17T21:24:48.721Z,70.22
2018-03-17T21:27:14.947Z,70.17
2018-03-17T21:29:41.134Z,69.22
2018-03-17T21:32:07.345Z,69.57
2018-03-17T21:34:33.528Z,68.75
2018-03-17T21:36:59.652Z,68.73
2018-03-17T21:39:25.836Z,69.63
2018-03-17T21:41:52.116Z,69.17
2018-03-17T21:44:18.287Z,69.30
2018-03-17T21:46:44.442Z,68.75
2018-03-17T21:49:10.664Z,69.47
2018-03-17T21:51:36.886Z,69.31
2018-03-17T21:54:03.046Z,69.50
2018-03-17T21:56:29.432Z,69.17
2018-03-17T21:58:55.661Z,68.90
2018-03-17T22:01:21.862Z,68.74
2018-03-17T22:03:48.101Z,68.04
2018-03-17T22:06:14.352Z,68.41
2018-03-17T22:08:40.613Z,69.06
2018-03-17T22:11:06.857Z,69.74
2018-03-17T22:13:32.983Z,68.40
2018-03-17T22:15:59.125Z,69.24
2018-03-17T22:18:25.342Z,68.35
2018-03-17T22:20:51.593Z,68.65
2018-03-17T22:23:17.819Z,68.95
2018-03-17T22:25:43.971Z,69.10
2018-03-17T22:28:10.231Z,69.89
2018-03-17T22:30:36.432Z,68.88
2018-03-17T22:33:02.649Z,68.23
2018-03-17T22:35:28.757Z,68.37
2018-03-17T22:37:54.942Z,68.15
2018-03-17T22:40:21.145Z,68.19
2018-03-17T22:42:47.346Z,68.42
2018-03-17T22:45:13.607Z,68.05
2018-03-17T22:47:39.802Z,68.30
2018-03-17T22:50:05.981Z,68.57
2018-03-17T22:52:32.202Z,67.98
2018-03-17T22:54:58.416Z,67.89
2018-03-17T22:57:24.654Z,68.00
2018-03-17T22:59:50.852Z,68.55
2018-03-17T23:02:17.076Z,69.38
2018-03-17T23:04:43.190Z,68.41
2018-03-17T23:07:09.418Z,69.15
2018-03-17T23:09:35.607Z,68.92
2018-03-17T23:12:01.882Z,68.79
2018-03-17T23:14:28.041Z,68.95
2018-03-17T23:16:54.229Z,69.40
2018-03-17T23:19:20.391Z,69.53
2018-03-17T23:21:46.623Z,69.00
2018-03-17T23:24:12.853Z,69.43
2018-03-17T23:26:39.040Z,69.41
2018-03-17T23:29:05.300Z,68.93
2018-03-17T23:31:31.592Z,69.58
2018-03-17T23:33:57.851Z,70.01
2018-03-17T23:36:24.062Z,69.84
2018-03-17T23:38:50.254Z,70.04
2018-03-17T23:41:16.524Z,69.88
2018-03-17T23:43:42.811Z,70.31
2018-03-17T23:46:09.112Z,70.78
2018-03-17T23:48:35.343Z,70.99
2018-03-17T23:51:01.576Z,70.17
2018-03-17T23:53:27.788Z,70.52
2018-03-17T23:55:54.027Z,71.42
2018-03-17T23:58:20.295Z,70.75
